createdAt,value
2023-02-03T00:00:30.508Z,78143.78
2023-02-03T00:02:57.265Z,78151.50
2023-02-03T00:05:24.325Z,78143.78
2023-02-03T00:07:51.117Z,78151.50
2023-02-03T00:10:21.616Z,78153.44
2023-02-03T00:12:55.023Z,78151.50
2023-02-03T00:15:23.318Z,78151.50
2023-02-03T00:17:50.075Z,78159.22
2023-02-03T00:20:16.730Z,78163.06
2023-02-03T00:22:43.283Z,78163.06
2023-02-03T00:25:10.314Z,78178.50
2023-02-03T00:27:37.134Z,78186.22
2023-02-03T00:30:04.235Z,78184.28
2023-02-03T00:32:31.048Z,78184.28
2023-02-03T00:34:57.748Z,78184.28
2023-02-03T00:37:24.343Z,78182.34
2023-02-03T00:39:50.887Z,78192.00
2023-02-03T00:42:17.487Z,78186.22
2023-02-03T00:44:44.020Z,78172.72
2023-02-03T00:47:10.629Z,78166.94
2023-02-03T00:49:37.235Z,78178.50
2023-02-03T00:52:04.182Z,78174.63
2023-02-03T00:54:32.685Z,78174.63
2023-02-03T00:57:00.236Z,78170.78
2023-02-03T00:59:26.844Z,78166.94
2023-02-03T01:01:53.542Z,78157.28
2023-02-03T01:04:20.291Z,78163.06
2023-02-03T01:06:46.911Z,78166.94
2023-02-03T01:09:13.526Z,78157.28
2023-02-03T01:11:40.379Z,78151.50
2023-02-03T01:14:07.903Z,78149.56
2023-02-03T01:16:38.249Z,78149.56
2023-02-03T01:19:05.306Z,78151.50
2023-02-03T01:21:32.498Z,78139.94
2023-02-03T01:23:59.804Z,78126.44
2023-02-03T01:26:26.699Z,78128.38
2023-02-03T01:29:01.022Z,78136.09
2023-02-03T01:31:30.012Z,78136.09
2023-02-03T01:33:57.166Z,78128.38
2023-02-03T01:36:25.987Z,78124.50
2023-02-03T01:38:52.682Z,78124.50
2023-02-03T01:41:24.812Z,78126.44
2023-02-03T01:43:54.222Z,78128.38
2023-02-03T01:46:46.782Z,78114.88
2023-02-03T01:49:38.527Z,78112.94
2023-02-03T01:52:05.926Z,78116.81
2023-02-03T01:54:38.965Z,78116.81
2023-02-03T01:57:13.393Z,78116.81
2023-02-03T01:59:40.391Z,78120.66
2023-02-03T02:02:08.215Z,78122.59
2023-02-03T02:04:59.747Z,78101.38
2023-02-03T02:07:26.555Z,78114.88
2023-02-03T02:09:54.848Z,78105.22
2023-02-03T02:12:21.486Z,78099.44
2023-02-03T02:14:48.453Z,78093.66
2023-02-03T02:17:33.390Z,78095.59
2023-02-03T02:20:15.119Z,78093.66
2023-02-03T02:22:56.725Z,78093.66
2023-02-03T02:25:40.972Z,78087.88
2023-02-03T02:28:24.798Z,78093.66
2023-02-03T02:31:13.130Z,78093.66
2023-02-03T02:33:46.085Z,78089.81
2023-02-03T02:36:31.639Z,78074.38
2023-02-03T02:39:02.690Z,78082.09
2023-02-03T02:41:44.790Z,78078.25
2023-02-03T02:44:14.349Z,78080.19
2023-02-03T02:46:48.827Z,78066.69
2023-02-03T02:49:29.863Z,78074.38
2023-02-03T02:51:59.540Z,78072.47
2023-02-03T02:54:30.015Z,78076.31
2023-02-03T02:57:01.118Z,78082.09
2023-02-03T02:59:29.634Z,78066.69
2023-02-03T03:01:56.856Z,78064.75
2023-02-03T03:04:29.676Z,78055.09
2023-02-03T03:07:06.805Z,78051.25
2023-02-03T03:09:44.316Z,78047.41
2023-02-03T03:12:17.111Z,78035.84
2023-02-03T03:14:50.271Z,78028.13
2023-02-03T03:17:26.154Z,78026.19
2023-02-03T03:19:56.470Z,78026.19
2023-02-03T03:22:28.879Z,78028.13
2023-02-03T03:25:01.571Z,78028.13
2023-02-03T03:27:36.630Z,78026.19
2023-02-03T03:30:10.921Z,78020.41
2023-02-03T03:32:38.196Z,78022.34
2023-02-03T03:35:06.235Z,78016.56
2023-02-03T03:37:43.705Z,78012.69
2023-02-03T03:40:50.872Z,78020.41
2023-02-03T03:43:25.429Z,78020.41
2023-02-03T03:46:01.315Z,78018.47
2023-02-03T03:48:47.914Z,78022.34
2023-02-03T03:51:20.390Z,78022.34
2023-02-03T03:53:47.822Z,78020.41
2023-02-03T03:56:21.108Z,78016.56
2023-02-03T03:58:50.039Z,78024.25
2023-02-03T04:01:17.391Z,78033.91
2023-02-03T04:03:50.424Z,78035.84
2023-02-03T04:06:17.030Z,78043.53
2023-02-03T04:08:43.655Z,78037.75
2023-02-03T04:11:10.333Z,78024.25
2023-02-03T04:13:36.936Z,78020.41
2023-02-03T04:16:03.617Z,78012.69
2023-02-03T04:18:30.226Z,78020.41
2023-02-03T04:20:56.847Z,78020.41
2023-02-03T04:23:23.679Z,78016.56
2023-02-03T04:25:50.288Z,78016.56
2023-02-03T04:28:17.087Z,78012.69
2023-02-03T04:30:43.812Z,78020.41
2023-02-03T04:33:10.528Z,78016.56
2023-02-03T04:35:37.642Z,78020.41
2023-02-03T04:38:04.319Z,78014.63
2023-02-03T04:40:30.996Z,78010.78
2023-02-03T04:42:58.077Z,78005.00
2023-02-03T04:45:24.829Z,78016.56
2023-02-03T04:47:54.290Z,78008.84
2023-02-03T04:50:21.505Z,78008.84
2023-02-03T04:52:48.234Z,78008.84
2023-02-03T04:55:14.875Z,78001.13
2023-02-03T04:57:41.496Z,77993.41
2023-02-03T05:00:08.885Z,77985.72
2023-02-03T05:02:35.741Z,77985.72
2023-02-03T05:05:02.283Z,77983.78
2023-02-03T05:07:28.882Z,77983.78
2023-02-03T05:09:55.532Z,77978.00
2023-02-03T05:12:22.101Z,77989.56
2023-02-03T05:14:48.674Z,77985.72
2023-02-03T05:17:15.228Z,77983.78
2023-02-03T05:19:41.867Z,77974.13
2023-02-03T05:22:08.568Z,77976.06
2023-02-03T05:24:35.146Z,77970.28
2023-02-03T05:27:01.775Z,77964.50
2023-02-03T05:29:28.331Z,77962.56
2023-02-03T05:31:54.993Z,77962.56
2023-02-03T05:34:21.839Z,77960.66
2023-02-03T05:36:48.460Z,77960.66
2023-02-03T05:39:15.120Z,77956.78
2023-02-03T05:41:53.681Z,77958.72
2023-02-03T05:44:26.556Z,77958.72
2023-02-03T05:46:55.111Z,77956.78
2023-02-03T05:49:23.280Z,77947.16
2023-02-03T05:51:51.840Z,77951.00
2023-02-03T05:54:18.420Z,77951.00
2023-02-03T05:56:45.102Z,77951.00
2023-02-03T05:59:11.921Z,77949.09
2023-02-03T06:01:38.776Z,77947.16
2023-02-03T06:04:05.909Z,77947.16
2023-02-03T06:06:36.787Z,77939.44
2023-02-03T06:09:08.648Z,77941.38
2023-02-03T06:11:36.404Z,77933.66
2023-02-03T06:14:03.950Z,77931.72
2023-02-03T06:16:30.856Z,77931.72
2023-02-03T06:19:02.043Z,77927.88
2023-02-03T06:21:29.321Z,77916.31
2023-02-03T06:23:56.675Z,77914.38
2023-02-03T06:26:25.035Z,77898.97
2023-02-03T06:28:51.668Z,77897.03
2023-02-03T06:31:18.302Z,77889.31
2023-02-03T06:33:45.081Z,77893.19
2023-02-03T06:36:11.789Z,77893.19
2023-02-03T06:38:38.350Z,77885.47
2023-02-03T06:41:05.006Z,77889.31
2023-02-03T06:43:31.665Z,77887.38
2023-02-03T06:45:58.368Z,77877.75
2023-02-03T06:48:25.037Z,77873.91
2023-02-03T06:50:51.644Z,77873.91
2023-02-03T06:53:18.266Z,77866.19
2023-02-03T06:55:45.137Z,77854.63
2023-02-03T06:58:11.728Z,77854.63
2023-02-03T07:00:38.299Z,77850.75
2023-02-03T07:03:05.112Z,77846.91
2023-02-03T07:05:31.831Z,77837.28
2023-02-03T07:07:59.109Z,77837.28
2023-02-03T07:10:25.885Z,77835.34
2023-02-03T07:12:52.574Z,77827.63
2023-02-03T07:15:19.467Z,77823.78
2023-02-03T07:17:54.794Z,77831.50
2023-02-03T07:20:22.997Z,77839.19
2023-02-03T07:22:57.491Z,77819.91
2023-02-03T07:25:25.138Z,77823.78
2023-02-03T07:27:51.848Z,77816.06
2023-02-03T07:30:18.711Z,77816.06
2023-02-03T07:32:52.659Z,77810.28
2023-02-03T07:35:19.836Z,77812.22
2023-02-03T07:37:46.627Z,77818.00
2023-02-03T07:40:14.818Z,77810.28
2023-02-03T07:42:45.462Z,77798.72
2023-02-03T07:45:13.629Z,77791.00
2023-02-03T07:47:41.328Z,77789.06
2023-02-03T07:50:08.903Z,77775.59
2023-02-03T07:52:35.524Z,77777.50
2023-02-03T07:55:02.429Z,77767.88
2023-02-03T07:57:29.052Z,77752.44
2023-02-03T07:59:55.643Z,77750.53
2023-02-03T08:02:22.279Z,77733.19
2023-02-03T08:04:49.137Z,77719.69
2023-02-03T08:07:15.742Z,77708.13
2023-02-03T08:09:42.346Z,77700.41
2023-02-03T08:12:09.089Z,77684.97
2023-02-03T08:14:35.660Z,77671.50
2023-02-03T08:17:02.213Z,77648.34
2023-02-03T08:19:29.235Z,77629.09
2023-02-03T08:21:56.740Z,77607.88
2023-02-03T08:24:23.668Z,77596.31
2023-02-03T08:26:50.320Z,77575.09
2023-02-03T08:29:17.012Z,77565.47
2023-02-03T08:31:43.704Z,77542.34
2023-02-03T08:34:10.415Z,77521.13
2023-02-03T08:36:39.991Z,77509.56
2023-02-03T08:39:07.203Z,77490.28
2023-02-03T08:41:34.344Z,77472.94
2023-02-03T08:44:01.463Z,77461.38
2023-02-03T08:46:28.221Z,77440.19
2023-02-03T08:48:57.137Z,77434.41
2023-02-03T08:51:24.747Z,77422.84
2023-02-03T08:53:52.015Z,77411.25
2023-02-03T08:56:18.678Z,77395.84
2023-02-03T08:58:45.362Z,77372.72
2023-02-03T09:01:15.818Z,77363.09
2023-02-03T09:03:42.644Z,77353.44
2023-02-03T09:06:11.801Z,77345.72
2023-02-03T09:08:38.967Z,77339.94
2023-02-03T09:11:10.447Z,77338.03
2023-02-03T09:13:37.979Z,77338.03
2023-02-03T09:16:06.894Z,77318.75
2023-02-03T09:18:34.003Z,77322.59
2023-02-03T09:21:02.439Z,77299.47
2023-02-03T09:23:29.494Z,77305.25
2023-02-03T09:25:56.652Z,77287.91
2023-02-03T09:28:23.386Z,77280.19
2023-02-03T09:30:50.031Z,77264.78
2023-02-03T09:33:16.605Z,77251.28
2023-02-03T09:35:51.208Z,77255.16
2023-02-03T09:38:17.779Z,77241.66
2023-02-03T09:40:46.866Z,77249.38
2023-02-03T09:43:21.602Z,77222.38
2023-02-03T09:45:48.374Z,77206.97
2023-02-03T09:48:21.276Z,77206.97
2023-02-03T09:50:50.871Z,77187.69
2023-02-03T09:53:29.028Z,77166.47
2023-02-03T09:55:56.851Z,77149.13
2023-02-03T09:58:24.922Z,77139.50
2023-02-03T10:00:56.000Z,77133.72
2023-02-03T10:03:54.208Z,77131.78
2023-02-03T10:06:45.426Z,77120.22
2023-02-03T10:09:50.475Z,77112.53
2023-02-03T10:12:47.279Z,77091.31
2023-02-03T10:15:22.733Z,77083.59
2023-02-03T10:18:05.346Z,77079.75
2023-02-03T10:20:33.241Z,77068.19
2023-02-03T10:23:09.864Z,77060.47
2023-02-03T10:25:41.915Z,77056.63
2023-02-03T10:28:18.586Z,77047.00
2023-02-03T10:30:57.579Z,77033.50
2023-02-03T10:33:29.790Z,76998.81
2023-02-03T10:36:19.372Z,76977.59
2023-02-03T10:38:48.667Z,76964.13
2023-02-03T10:41:17.923Z,76966.03
2023-02-03T10:43:52.798Z,76975.69
2023-02-03T10:46:31.938Z,76979.53
2023-02-03T10:48:58.910Z,76981.47
2023-02-03T10:51:41.626Z,76983.38
2023-02-03T10:54:26.728Z,76987.25
2023-02-03T10:56:55.228Z,76977.59
2023-02-03T10:59:31.490Z,76971.81
2023-02-03T11:01:58.950Z,76964.13
2023-02-03T11:04:32.220Z,76958.34
2023-02-03T11:07:07.059Z,76935.22
2023-02-03T11:09:37.540Z,76942.91
2023-02-03T11:12:14.310Z,76946.78
2023-02-03T11:14:44.401Z,76941.00
2023-02-03T11:17:29.722Z,76937.13
2023-02-03T11:20:16.471Z,76935.22
2023-02-03T11:22:44.391Z,76942.91
2023-02-03T11:25:29.859Z,76933.28
2023-02-03T11:28:03.573Z,76941.00
2023-02-03T11:30:30.779Z,76933.28
2023-02-03T11:33:02.086Z,76925.56
2023-02-03T11:35:31.936Z,76941.00
2023-02-03T11:38:02.072Z,76946.78
2023-02-03T11:40:39.234Z,76952.56
2023-02-03T11:43:16.217Z,76954.47
2023-02-03T11:45:53.907Z,76966.03
2023-02-03T11:48:23.340Z,76971.81
2023-02-03T11:51:22.269Z,76973.75
2023-02-03T11:53:57.937Z,76979.53
2023-02-03T11:56:31.660Z,76977.59
2023-02-03T11:59:21.126Z,76975.69
2023-02-03T12:02:06.059Z,76964.13
2023-02-03T12:04:44.109Z,76948.69
2023-02-03T12:07:22.758Z,76927.50
2023-02-03T12:09:49.255Z,76917.88
2023-02-03T12:12:27.859Z,76929.44
2023-02-03T12:15:05.527Z,76917.88
2023-02-03T12:17:40.530Z,76923.66
2023-02-03T12:20:33.296Z,76927.50
2023-02-03T12:23:15.076Z,76944.84
2023-02-03T12:25:47.640Z,76967.97
2023-02-03T12:28:33.217Z,76973.75
2023-02-03T12:31:09.482Z,76981.47
2023-02-03T12:33:44.292Z,76983.38
2023-02-03T12:36:33.846Z,77002.66
2023-02-03T12:39:09.263Z,76989.16
2023-02-03T12:41:42.901Z,76967.97
2023-02-03T12:44:19.456Z,76969.91
2023-02-03T12:47:12.921Z,76950.63
2023-02-03T12:49:48.749Z,76927.50
2023-02-03T12:52:27.831Z,76908.22
2023-02-03T12:55:06.622Z,76892.81
2023-02-03T12:57:40.051Z,76879.31
2023-02-03T13:00:27.480Z,76867.75
2023-02-03T13:03:06.608Z,76852.34
2023-02-03T13:05:42.763Z,76852.34
2023-02-03T13:08:25.446Z,76848.47
2023-02-03T13:11:07.166Z,76835.00
2023-02-03T13:13:39.664Z,76823.44
2023-02-03T13:16:08.120Z,76817.66
2023-02-03T13:18:38.169Z,76817.66
2023-02-03T13:21:05.129Z,76798.38
2023-02-03T13:23:32.548Z,76794.53
2023-02-03T13:26:30.819Z,76777.19
2023-02-03T13:29:00.507Z,76777.19
2023-02-03T13:31:57.039Z,76754.06
2023-02-03T13:34:39.962Z,76748.28
2023-02-03T13:37:06.704Z,76744.41
2023-02-03T13:39:33.322Z,76748.28
2023-02-03T13:42:24.746Z,76744.41
2023-02-03T13:44:57.029Z,76755.97
2023-02-03T13:47:29.912Z,76771.41
2023-02-03T13:50:03.437Z,76767.53
2023-02-03T13:52:47.393Z,76790.66
2023-02-03T13:55:31.363Z,76813.78
2023-02-03T13:57:58.481Z,76833.06
2023-02-03T14:00:43.368Z,76821.50
2023-02-03T14:03:25.209Z,76825.34
2023-02-03T14:05:57.323Z,76836.94
2023-02-03T14:08:29.652Z,76842.69
2023-02-03T14:11:33.388Z,76856.19
2023-02-03T14:14:09.341Z,76861.97
2023-02-03T14:16:39.552Z,76894.75
2023-02-03T14:19:33.381Z,76912.09
2023-02-03T14:22:06.813Z,76929.44
2023-02-03T14:24:38.197Z,76935.22
2023-02-03T14:27:16.229Z,76933.28
2023-02-03T14:29:43.125Z,76942.91
2023-02-03T14:32:12.016Z,76929.44
2023-02-03T14:34:42.312Z,76917.88
2023-02-03T14:37:30.747Z,76910.16
2023-02-03T14:40:21.860Z,76904.38
2023-02-03T14:42:49.387Z,76902.44
2023-02-03T14:45:26.675Z,76898.59
2023-02-03T14:48:00.563Z,76894.75
2023-02-03T14:50:53.697Z,76898.59
2023-02-03T14:53:23.400Z,76890.88
2023-02-03T14:56:25.517Z,76890.88
2023-02-03T14:58:59.468Z,76875.47
2023-02-03T15:01:49.430Z,76873.53
2023-02-03T15:04:16.064Z,76856.19
2023-02-03T15:06:49.155Z,76865.84
2023-02-03T15:09:48.512Z,76883.19
2023-02-03T15:12:22.639Z,76871.63
2023-02-03T15:14:49.307Z,76871.63
2023-02-03T15:17:24.603Z,76856.19
2023-02-03T15:19:51.837Z,76861.97
2023-02-03T15:22:22.707Z,76858.13
2023-02-03T15:24:52.851Z,76860.06
2023-02-03T15:27:25.081Z,76867.75
2023-02-03T15:29:52.341Z,76867.75
2023-02-03T15:32:23.546Z,76865.84
2023-02-03T15:34:51.997Z,76848.47
2023-02-03T15:37:38.926Z,76850.41
2023-02-03T15:40:19.692Z,76829.22
2023-02-03T15:43:07.960Z,76833.06
2023-02-03T15:45:45.968Z,76823.44
2023-02-03T15:48:22.177Z,76811.88
2023-02-03T15:50:57.867Z,76800.31
2023-02-03T15:53:47.817Z,76786.81
2023-02-03T15:56:30.514Z,76771.41
2023-02-03T15:58:58.879Z,76769.47
2023-02-03T16:01:28.115Z,76767.53
2023-02-03T16:03:57.139Z,76767.53
2023-02-03T16:06:44.865Z,76755.97
2023-02-03T16:09:32.517Z,76763.69
2023-02-03T16:12:16.861Z,76750.19
2023-02-03T16:14:44.588Z,76736.72
2023-02-03T16:17:39.254Z,76732.84
2023-02-03T16:20:11.695Z,76727.06
2023-02-03T16:22:39.527Z,76719.38
2023-02-03T16:25:20.203Z,76717.44
2023-02-03T16:28:25.371Z,76734.78
2023-02-03T16:31:14.017Z,76736.72
2023-02-03T16:34:06.617Z,76730.94
2023-02-03T16:36:52.220Z,76727.06
2023-02-03T16:39:37.426Z,76711.66
2023-02-03T16:42:34.400Z,76709.72
2023-02-03T16:45:19.768Z,76730.94
2023-02-03T16:48:05.741Z,76740.56
2023-02-03T16:50:53.915Z,76742.50
2023-02-03T16:53:23.158Z,76725.16
2023-02-03T16:55:51.542Z,76732.84
2023-02-03T16:58:18.817Z,76736.72
2023-02-03T17:00:48.417Z,76757.91
2023-02-03T17:03:18.048Z,76763.69
2023-02-03T17:05:47.510Z,76763.69
2023-02-03T17:08:15.531Z,76752.13
2023-02-03T17:10:44.169Z,76746.34
2023-02-03T17:13:14.465Z,76742.50
2023-02-03T17:15:43.202Z,76729.00
2023-02-03T17:18:10.439Z,76725.16
2023-02-03T17:20:37.844Z,76702.03
2023-02-03T17:23:04.487Z,76684.69
2023-02-03T17:25:33.173Z,76682.75
2023-02-03T17:27:59.944Z,76669.25
2023-02-03T17:30:28.284Z,76682.75
2023-02-03T17:32:59.366Z,76659.63
2023-02-03T17:35:26.140Z,76671.19
2023-02-03T17:37:54.165Z,76673.13
2023-02-03T17:54:06.557Z,76732.84
2023-02-03T17:56:35.661Z,76732.84
2023-02-03T17:59:04.187Z,76734.78
2023-02-03T18:01:31.751Z,76750.19
2023-02-03T18:04:03.594Z,76732.84
2023-02-03T18:06:33.096Z,76736.72
2023-02-03T18:09:01.908Z,76748.28
2023-02-03T18:11:30.370Z,76740.56
2023-02-03T18:13:57.243Z,76750.19
2023-02-03T18:16:27.951Z,76763.69
2023-02-03T18:18:56.256Z,76752.13
2023-02-03T18:21:24.486Z,76761.75
2023-02-03T18:23:51.428Z,76775.25
2023-02-03T18:26:19.611Z,76775.25
2023-02-03T18:28:46.708Z,76798.38
2023-02-03T18:31:15.736Z,76821.50
2023-02-03T18:33:44.593Z,76860.06
2023-02-03T18:36:12.761Z,76883.19
2023-02-03T18:38:41.973Z,76921.72
2023-02-03T18:41:18.051Z,76944.84
2023-02-03T18:43:45.415Z,76977.59
2023-02-03T18:46:16.702Z,76979.53
2023-02-03T18:48:43.290Z,77010.38
2023-02-03T18:51:11.504Z,77006.53
2023-02-03T18:53:38.870Z,77027.72
2023-02-03T18:56:07.779Z,77029.66
2023-02-03T18:58:34.901Z,77014.22
2023-02-03T19:01:01.638Z,77002.66
2023-02-03T19:03:28.346Z,76996.88
2023-02-03T19:05:55.099Z,76989.16
2023-02-03T19:08:21.855Z,76991.09
2023-02-03T19:10:55.358Z,76956.41
2023-02-03T19:13:22.010Z,76933.28
2023-02-03T19:15:51.320Z,76933.28
2023-02-03T19:18:17.919Z,76937.13
2023-02-03T19:20:44.957Z,76931.34
2023-02-03T19:23:12.487Z,76921.72
2023-02-03T19:25:39.809Z,76925.56
2023-02-03T19:28:14.295Z,76929.44
2023-02-03T19:30:44.801Z,76929.44
2023-02-03T19:33:12.046Z,76917.88
2023-02-03T19:35:38.808Z,76917.88
2023-02-03T19:38:05.557Z,76921.72
2023-02-03T19:40:32.318Z,76919.78
2023-02-03T19:42:59.230Z,76921.72
2023-02-03T19:45:27.037Z,76914.00
2023-02-03T19:47:53.687Z,76925.56
2023-02-03T19:50:20.300Z,76933.28
2023-02-03T19:52:48.610Z,76931.34
2023-02-03T19:55:16.185Z,76910.16
2023-02-03T19:57:42.827Z,76929.44
2023-02-03T20:00:10.110Z,76933.28
2023-02-03T20:02:42.275Z,76933.28
2023-02-03T20:05:09.126Z,76925.56
2023-02-03T20:07:35.928Z,76910.16
2023-02-03T20:10:02.536Z,76927.50
2023-02-03T20:12:30.674Z,76933.28
2023-02-03T20:14:57.332Z,76939.06
2023-02-03T20:17:24.309Z,76944.84
2023-02-03T20:19:50.896Z,76952.56
2023-02-03T20:22:17.478Z,76950.63
2023-02-03T20:24:44.077Z,76952.56
2023-02-03T20:27:10.893Z,76956.41
2023-02-03T20:29:37.498Z,76956.41
2023-02-03T20:32:06.785Z,76966.03
2023-02-03T20:34:33.852Z,76975.69
2023-02-03T20:37:01.016Z,76975.69
2023-02-03T20:39:28.117Z,76981.47
2023-02-03T20:41:54.937Z,76977.59
2023-02-03T20:44:21.560Z,76975.69
2023-02-03T20:46:48.202Z,76987.25
2023-02-03T20:49:18.283Z,76993.03
2023-02-03T20:51:50.424Z,76977.59
2023-02-03T20:54:21.783Z,76979.53
2023-02-03T20:56:49.197Z,76983.38
2023-02-03T20:59:17.805Z,76996.88
2023-02-03T21:01:45.180Z,77000.75
2023-02-03T21:04:35.406Z,77000.75
2023-02-03T21:07:12.640Z,77004.59
2023-02-03T21:09:40.446Z,77006.53
2023-02-03T21:12:13.450Z,77002.66
2023-02-03T21:14:43.290Z,77006.53
2023-02-03T21:17:25.629Z,77014.22
2023-02-03T21:19:53.775Z,77018.09
2023-02-03T21:22:30.205Z,77021.94
2023-02-03T21:25:03.317Z,77031.56
2023-02-03T21:27:31.263Z,77037.34
2023-02-03T21:29:59.355Z,77041.22
2023-02-03T21:32:34.017Z,77048.91
2023-02-03T21:35:00.724Z,77048.91
2023-02-03T21:37:41.488Z,77048.91
2023-02-03T21:40:18.557Z,77048.91
2023-02-03T21:42:46.620Z,77039.28
2023-02-03T21:45:22.499Z,77041.22
2023-02-03T21:47:51.204Z,77041.22
2023-02-03T21:50:28.807Z,77033.50
2023-02-03T21:52:56.153Z,77033.50
2023-02-03T21:55:22.778Z,77031.56
2023-02-03T21:57:49.654Z,77037.34
2023-02-03T22:00:43.443Z,77029.66
2023-02-03T22:03:20.281Z,77023.88
2023-02-03T22:05:47.758Z,77014.22
2023-02-03T22:08:19.053Z,77000.75
2023-02-03T22:10:45.848Z,76981.47
2023-02-03T22:13:13.258Z,76966.03
2023-02-03T22:15:41.062Z,76942.91
2023-02-03T22:18:07.966Z,76941.00
2023-02-03T22:20:35.094Z,76929.44
2023-02-03T22:23:01.732Z,76929.44
2023-02-03T22:25:28.317Z,76937.13
2023-02-03T22:27:54.951Z,76929.44
2023-02-03T22:30:21.591Z,76927.50
2023-02-03T22:32:48.320Z,76929.44
2023-02-03T22:35:14.984Z,76917.88
2023-02-03T22:37:41.563Z,76921.72
2023-02-03T22:40:09.757Z,76910.16
2023-02-03T22:42:36.393Z,76906.31
2023-02-03T22:45:03.484Z,76902.44
2023-02-03T22:47:30.098Z,76904.38
2023-02-03T22:49:56.700Z,76908.22
2023-02-03T22:52:23.320Z,76908.22
2023-02-03T22:54:50.061Z,76917.88
2023-02-03T22:57:16.649Z,76914.00
2023-02-03T22:59:43.291Z,76917.88
2023-02-03T23:02:09.848Z,76914.00
2023-02-03T23:04:36.518Z,76904.38
2023-02-03T23:07:03.161Z,76908.22
2023-02-03T23:09:29.813Z,76914.00
2023-02-03T23:11:56.415Z,76908.22
2023-02-03T23:14:23.133Z,76904.38
2023-02-03T23:16:49.703Z,76914.00
2023-02-03T23:19:16.335Z,76910.16
2023-02-03T23:21:42.960Z,76900.53
2023-02-03T23:24:09.515Z,76898.59
2023-02-03T23:26:36.238Z,76890.88
2023-02-03T23:29:02.868Z,76881.25
2023-02-03T23:31:29.886Z,76879.31
2023-02-03T23:34:15.292Z,76871.63
2023-02-03T23:36:41.900Z,76871.63
2023-02-03T23:39:08.572Z,76879.31
2023-02-03T23:41:35.224Z,76871.63
2023-02-03T23:44:01.808Z,76869.69
2023-02-03T23:46:28.472Z,76875.47
2023-02-03T23:48:55.069Z,76883.19
2023-02-03T23:51:21.711Z,76863.91
2023-02-03T23:53:48.360Z,76863.91
2023-02-03T23:56:14.934Z,76858.13
2023-02-03T23:58:41.529Z,76856.19
